Time;durP1;ratioP1;P1;durP2;ratioP2;P2;SDS_P1;SDS_P2;PMS_P1;PMS_P2;Temp;Humidity;BMP_temperature;BMP_pressure;BME280_temperature;BME280_humidity;BME280_pressure;Samples;Min_cycle;Max_cycle;Signal;HPM_P1;HPM_P2
2021/09/29 04:00:56;;;;;;;9.27;8.47;;;15.20;99.90;;;;;;5701462;23;20830;-65
2021/09/29 04:03:23;;;;;;;9.93;9.00;;;15.20;99.90;;;;;;4976790;28;20796;-66
2021/09/29 04:05:50;;;;;;;8.83;7.93;;;15.30;99.90;;;;;;4976727;28;20451;-65
2021/09/29 04:08:17;;;;;;;9.17;8.30;;;15.30;99.90;;;;;;4976543;28;20461;-65
2021/09/29 04:10:43;;;;;;;9.40;8.43;;;15.30;99.90;;;;;;4976601;28;20494;-65
2021/09/29 04:13:10;;;;;;;9.63;8.73;;;15.30;99.90;;;;;;4976045;28;20509;-65
2021/09/29 04:15:37;;;;;;;10.07;9.20;;;15.30;99.90;;;;;;4976259;28;20463;-65
2021/09/29 04:18:06;;;;;;;11.10;9.30;;;15.30;99.90;;;;;;4976437;28;20450;-65
2021/09/29 04:20:33;;;;;;;10.23;8.73;;;15.30;99.90;;;;;;4975869;28;20478;-65
2021/09/29 04:23:00;;;;;;;9.83;8.93;;;15.30;99.90;;;;;;4976280;28;20451;-65
2021/09/29 04:25:27;;;;;;;9.63;8.20;;;15.40;99.90;;;;;;4976669;28;20462;-66
2021/09/29 04:27:53;;;;;;;9.40;8.50;;;15.40;99.90;;;;;;4975909;28;20461;-66
2021/09/29 04:30:20;;;;;;;8.77;8.07;;;15.30;99.90;;;;;;4975876;28;20545;-66
2021/09/29 04:32:47;;;;;;;8.40;7.60;;;15.40;99.90;;;;;;4975912;28;20838;-65
2021/09/29 04:35:16;;;;;;;9.37;8.00;;;15.40;99.90;;;;;;4976007;28;20454;-66
2021/09/29 04:37:42;;;;;;;9.20;8.23;;;15.40;99.90;;;;;;4976225;28;20454;-66
2021/09/29 04:40:10;;;;;;;9.50;8.67;;;15.40;99.90;;;;;;4976171;28;20462;-66
2021/09/29 04:42:37;;;;;;;9.20;8.40;;;15.40;99.90;;;;;;4976048;28;20482;-66
2021/09/29 04:45:04;;;;;;;8.50;7.80;;;15.30;99.90;;;;;;4975756;28;20477;-65
2021/09/29 04:47:31;;;;;;;9.13;8.10;;;15.30;99.90;;;;;;4976077;28;20458;-65
2021/09/29 04:49:59;;;;;;;9.83;8.30;;;15.30;99.90;;;;;;4975417;28;20862;-65
2021/09/29 04:52:27;;;;;;;8.60;8.00;;;15.30;99.90;;;;;;4975578;28;20483;-66
2021/09/29 04:54:54;;;;;;;8.77;8.17;;;15.20;99.90;;;;;;4975623;28;20459;-66
2021/09/29 04:57:21;;;;;;;8.70;8.00;;;15.20;99.90;;;;;;4975731;28;20505;-65
2021/09/29 04:59:47;;;;;;;9.10;8.10;;;15.10;99.90;;;;;;4975449;28;20465;-66
2021/09/29 05:02:15;;;;;;;9.47;7.80;;;15.10;99.90;;;;;;4975385;28;20478;-66
2021/09/29 05:04:43;;;;;;;8.20;7.60;;;15.10;99.90;;;;;;4975493;28;20450;-66
2021/09/29 05:07:17;;;;;;;10.80;8.40;;;15.10;99.90;;;;;;4975098;28;20832;-66
2021/09/29 05:09:45;;;;;;;10.10;7.30;;;15.00;99.90;;;;;;4975228;28;20439;-66
2021/09/29 05:12:20;;;;;;;8.60;7.80;;;15.00;99.90;;;;;;4975357;28;20985;-66
2021/09/29 05:14:47;;;;;;;8.47;7.67;;;15.00;99.90;;;;;;4975424;28;20450;-67
2021/09/29 05:17:14;;;;;;;8.07;7.27;;;14.90;99.90;;;;;;4975497;28;20463;-66
2021/09/29 05:19:40;;;;;;;8.07;7.30;;;14.90;99.90;;;;;;4975013;28;20462;-66
2021/09/29 05:22:07;;;;;;;8.83;8.03;;;14.80;99.90;;;;;;4975316;28;20521;-66
2021/09/29 05:24:34;;;;;;;8.30;7.63;;;14.80;99.90;;;;;;4975312;28;20454;-66
2021/09/29 05:27:02;;;;;;;9.63;8.70;;;14.70;99.90;;;;;;4975356;28;20815;-67
2021/09/29 05:29:30;;;;;;;8.83;7.73;;;14.60;99.90;;;;;;4975645;28;20469;-66
2021/09/29 05:31:57;;;;;;;8.83;7.97;;;14.60;99.90;;;;;;4974766;28;20483;-66
2021/09/29 05:34:24;;;;;;;9.33;6.47;;;14.50;99.90;;;;;;4974959;28;20462;-66
2021/09/29 05:36:51;;;;;;;8.13;7.53;;;14.50;99.90;;;;;;4975932;28;20487;-66
2021/09/29 05:39:18;;;;;;;8.20;6.47;;;14.40;99.90;;;;;;4974907;28;20466;-66
2021/09/29 05:41:45;;;;;;;11.00;7.17;;;14.40;99.90;;;;;;4975118;28;20478;-65
2021/09/29 05:44:13;;;;;;;6.27;5.77;;;14.40;99.90;;;;;;4975338;28;20454;-65
2021/09/29 05:46:40;;;;;;;5.80;5.30;;;14.50;99.90;;;;;;4975575;28;20481;-66
2021/09/29 05:49:07;;;;;;;5.83;4.97;;;14.60;99.90;;;;;;4975448;28;20461;-66
2021/09/29 05:51:33;;;;;;;4.57;4.17;;;14.70;99.90;;;;;;4975366;28;20478;-66
2021/09/29 05:54:00;;;;;;;4.57;4.17;;;14.70;99.90;;;;;;4975206;28;20569;-66
2021/09/29 05:56:27;;;;;;;5.33;4.73;;;14.80;99.90;;;;;;4975519;28;20458;-67
2021/09/29 05:58:54;;;;;;;5.87;4.13;;;14.80;99.90;;;;;;4975649;28;20454;-66
2021/09/29 06:01:22;;;;;;;4.30;4.00;;;14.80;99.90;;;;;;4975291;28;20494;-67
2021/09/29 06:03:48;;;;;;;5.30;4.40;;;14.80;99.90;;;;;;4975173;28;20450;-67
2021/09/29 06:06:15;;;;;;;6.83;4.10;;;14.80;99.90;;;;;;4974714;28;20477;-66
2021/09/29 06:08:42;;;;;;;5.13;4.33;;;14.70;99.90;;;;;;4975291;28;20466;-66
2021/09/29 06:11:08;;;;;;;3.93;3.63;;;14.80;99.90;;;;;;4975156;28;20481;-65
2021/09/29 06:13:35;;;;;;;7.83;4.73;;;14.90;99.90;;;;;;4974799;28;21012;-65
2021/09/29 06:16:07;;;;;;;3.47;3.17;;;15.10;99.90;;;;;;4974648;28;20455;-65
2021/09/29 06:18:35;;;;;;;3.37;3.07;;;15.20;99.90;;;;;;4974866;28;20498;-66
2021/09/29 06:21:03;;;;;;;4.63;4.07;;;15.40;99.90;;;;;;4976541;28;20474;-66
2021/09/29 06:23:30;;;;;;;3.70;3.23;;;15.60;99.90;;;;;;4978725;28;20486;-66
2021/09/29 06:25:57;;;;;;;4.30;3.90;;;15.90;99.90;;;;;;4978442;28;20945;-64
2021/09/29 06:28:24;;;;;;;4.30;3.37;;;16.20;99.90;;;;;;4978368;28;20902;-66
2021/09/29 06:30:54;;;;;;;3.50;2.93;;;16.50;99.90;;;;;;4978389;28;20550;-64
2021/09/29 06:33:21;;;;;;;3.93;3.37;;;16.70;99.90;;;;;;4987943;28;20481;-65
2021/09/29 06:35:49;;;;;;;3.00;2.80;;;17.30;99.90;;;;;;4990561;28;20454;-65
2021/09/29 06:38:16;;;;;;;3.50;3.20;;;17.90;99.90;;;;;;4991761;28;20480;-65
2021/09/29 06:40:42;;;;;;;6.07;3.47;;;18.30;99.90;;;;;;4990934;28;20998;-65
2021/09/29 06:43:09;;;;;;;5.97;3.10;;;19.00;99.90;;;;;;4981299;28;20450;-65
2021/09/29 06:45:36;;;;;;;7.00;3.07;;;19.60;99.90;;;;;;4977964;28;20461;-65
2021/09/29 06:48:03;;;;;;;4.20;2.47;;;19.60;99.90;;;;;;4977965;28;20494;-65
2021/09/29 06:50:30;;;;;;;3.27;2.93;;;19.30;99.90;;;;;;4977591;28;20479;-65
2021/09/29 06:52:58;;;;;;;4.43;2.73;;;19.20;99.90;;;;;;4977657;28;20505;-65
2021/09/29 06:55:25;;;;;;;5.10;2.63;;;19.80;99.90;;;;;;4977650;28;20465;-65
2021/09/29 06:57:51;;;;;;;3.27;2.43;;;20.30;99.90;;;;;;4977562;28;20463;-65
2021/09/29 07:00:18;;;;;;;2.90;2.10;;;21.00;99.90;;;;;;4977303;28;20457;-65
2021/09/29 07:02:47;;;;;;;4.90;2.27;;;21.30;99.90;;;;;;4977742;28;20446;-65
2021/09/29 07:05:14;;;;;;;3.60;2.80;;;21.60;99.90;;;;;;4977513;28;20481;-65
2021/09/29 07:07:41;;;;;;;4.53;2.30;;;22.10;99.90;;;;;;4977443;28;20466;-65
2021/09/29 07:10:10;;;;;;;5.60;2.40;;;22.60;99.90;;;;;;4977278;28;20937;-65
2021/09/29 07:12:38;;;;;;;3.53;2.50;;;23.20;99.90;;;;;;4977587;28;20485;-65
2021/09/29 07:15:05;;;;;;;6.07;2.30;;;23.60;99.90;;;;;;4977602;28;20522;-65
2021/09/29 07:17:32;;;;;;;3.33;2.93;;;23.70;99.90;;;;;;4977144;28;20954;-65
2021/09/29 07:19:59;;;;;;;2.90;2.17;;;24.40;97.90;;;;;;4977380;28;20451;-65
2021/09/29 07:22:27;;;;;;;3.20;2.33;;;24.50;96.20;;;;;;4976945;28;21113;-65
2021/09/29 07:24:55;;;;;;;3.83;2.13;;;24.30;96.00;;;;;;4977125;28;20462;-65
2021/09/29 07:27:23;;;;;;;3.30;2.33;;;24.50;94.90;;;;;;4977457;28;20873;-65
2021/09/29 07:29:50;;;;;;;2.63;2.40;;;24.70;94.00;;;;;;4977171;28;20458;-65
2021/09/29 07:32:17;;;;;;;2.17;1.97;;;24.90;93.40;;;;;;4975945;28;20470;-65
2021/09/29 07:34:44;;;;;;;2.60;1.80;;;25.50;92.60;;;;;;4976995;28;20479;-65
2021/09/29 07:37:10;;;;;;;2.30;1.90;;;25.90;90.70;;;;;;4977587;28;20459;-66
2021/09/29 07:39:37;;;;;;;3.80;1.90;;;25.60;90.40;;;;;;4976972;28;20455;-66
2021/09/29 07:42:05;;;;;;;3.60;1.67;;;26.10;90.40;;;;;;4976900;28;20513;-66
2021/09/29 07:44:33;;;;;;;2.07;1.90;;;26.20;86.20;;;;;;4976686;28;20462;-66
2021/09/29 07:47:00;;;;;;;2.83;1.90;;;26.20;84.00;;;;;;4976995;28;20454;-65
2021/09/29 07:49:26;;;;;;;2.90;1.60;;;26.60;83.40;;;;;;4976868;28;20455;-65
2021/09/29 07:51:53;;;;;;;4.07;2.10;;;26.90;82.30;;;;;;4976430;28;20481;-66
2021/09/29 07:54:20;;;;;;;3.00;1.37;;;26.40;80.40;;;;;;4976660;28;20561;-66
2021/09/29 07:56:47;;;;;;;3.47;1.93;;;25.70;82.20;;;;;;4976663;28;20461;-67
2021/09/29 07:59:14;;;;;;;2.87;1.80;;;25.20;82.70;;;;;;4976385;28;20458;-66
2021/09/29 08:01:42;;;;;;;4.33;1.60;;;24.70;85.00;;;;;;4976213;28;20494;-67
2021/09/29 08:04:08;;;;;;;1.77;1.40;;;24.60;85.30;;;;;;4976778;28;20451;-66
2021/09/29 08:06:35;;;;;;;1.50;1.23;;;23.90;86.40;;;;;;4976537;28;20458;-66
2021/09/29 08:09:02;;;;;;;3.20;1.33;;;23.50;87.90;;;;;;4976279;28;20451;-66
2021/09/29 08:11:29;;;;;;;2.27;1.53;;;23.80;88.70;;;;;;4976390;28;20479;-66
2021/09/29 08:13:56;;;;;;;3.03;1.70;;;24.00;87.10;;;;;;4976132;28;20481;-66
2021/09/29 08:16:23;;;;;;;2.10;1.50;;;24.70;85.60;;;;;;4976329;28;20454;-66
2021/09/29 08:18:51;;;;;;;4.03;1.90;;;25.60;84.10;;;;;;4976375;28;20454;-66
2021/09/29 08:21:23;;;;;;;1.73;1.60;;;26.40;80.80;;;;;;4975775;28;20475;-66
2021/09/29 08:23:53;;;;;;;1.80;1.40;;;26.70;78.00;;;;;;4976456;28;20439;-66
2021/09/29 08:29:24;;;;;;;2.00;1.17;;;27.30;75.10;;;;;;4976292;28;20481;-66
2021/09/29 08:31:53;;;;;;;2.60;1.40;;;27.40;76.20;;;;;;4976041;28;20470;-67
2021/09/29 08:34:26;;;;;;;3.47;1.20;;;27.70;72.90;;;;;;4975566;28;20514;-66
2021/09/29 08:37:01;;;;;;;1.57;1.47;;;28.20;69.80;;;;;;4976027;28;20529;-66
2021/09/29 08:39:31;;;;;;;1.30;1.20;;;28.10;69.00;;;;;;4975615;28;20508;-66
2021/09/29 08:42:13;;;;;;;1.77;1.40;;;28.20;68.20;;;;;;4976188;28;20474;-66
2021/09/29 08:44:46;;;;;;;2.80;1.40;;;28.40;67.50;;;;;;4975378;28;20798;-66
2021/09/29 08:47:17;;;;;;;1.90;1.30;;;28.70;65.60;;;;;;4975827;28;20454;-66
2021/09/29 08:49:54;;;;;;;4.00;1.40;;;29.20;65.70;;;;;;4975876;28;20543;-66
2021/09/29 09:17:31;;;;;;;2.80;1.30;;;28.60;64.10;;;;;;4956142;28;20989;-67
2021/09/29 09:20:09;;;;;;;1.97;1.37;;;29.00;61.00;;;;;;4975527;28;20441;-66
2021/09/29 09:22:38;;;;;;;1.40;1.10;;;28.30;60.50;;;;;;4975319;28;20446;-66
2021/09/29 09:25:05;;;;;;;1.63;1.07;;;27.90;63.10;;;;;;4975490;28;20447;-66
2021/09/29 09:27:44;;;;;;;4.40;1.20;;;28.40;63.40;;;;;;4975417;28;20464;-66
2021/09/29 09:30:12;;;;;;;2.73;1.50;;;28.70;61.60;;;;;;4975549;28;20518;-68
2021/09/29 09:32:44;;;;;;;1.80;1.30;;;29.30;61.10;;;;;;4975450;28;20457;-67
2021/09/29 09:35:13;;;;;;;6.50;1.20;;;29.70;59.30;;;;;;4975428;28;20485;-67
2021/09/29 09:37:44;;;;;;;1.30;1.20;;;29.00;58.50;;;;;;4975523;28;20454;-67
2021/09/29 09:40:15;;;;;;;2.47;1.43;;;28.60;59.50;;;;;;4975239;28;20466;-67
2021/09/29 09:42:44;;;;;;;2.80;1.40;;;27.40;61.20;;;;;;4975566;28;20454;-66
2021/09/29 09:45:11;;;;;;;3.47;1.60;;;25.70;64.80;;;;;;4975248;28;20461;-66
2021/09/29 09:47:40;;;;;;;2.00;1.43;;;24.70;67.60;;;;;;4975161;28;20461;-66
2021/09/29 09:50:08;;;;;;;2.10;1.20;;;23.90;69.70;;;;;;4975882;28;20451;-66
2021/09/29 09:52:40;;;;;;;6.70;1.73;;;23.20;71.90;;;;;;4975483;28;20485;-66
2021/09/29 09:55:12;;;;;;;2.07;1.30;;;22.40;74.00;;;;;;4975591;28;21048;-66
2021/09/29 09:57:40;;;;;;;1.60;1.10;;;21.80;76.80;;;;;;4979147;28;20449;-66
2021/09/29 10:00:09;;;;;;;1.80;1.30;;;21.30;79.60;;;;;;4978970;28;20465;-66
2021/09/29 10:02:40;;;;;;;1.90;1.30;;;21.00;81.80;;;;;;4978633;28;20471;-66
2021/09/29 10:05:08;;;;;;;2.30;1.17;;;20.60;82.20;;;;;;4978760;28;20446;-66
2021/09/29 10:07:35;;;;;;;2.60;1.30;;;20.30;82.80;;;;;;4978308;28;20505;-66
2021/09/29 10:10:05;;;;;;;2.17;1.10;;;20.00;83.40;;;;;;4978442;28;20941;-66
2021/09/29 10:12:43;;;;;;;3.13;1.40;;;19.90;84.20;;;;;;4978580;28;20521;-66
2021/09/29 10:23:52;;;;;;;2.07;1.20;;;23.00;77.50;;;;;;4978618;28;20546;-66
2021/09/29 10:26:22;;;;;;;1.73;0.97;;;23.10;75.60;;;;;;4978441;28;20526;-66
2021/09/29 10:28:50;;;;;;;2.53;1.43;;;23.20;75.70;;;;;;4978662;28;20492;-66
2021/09/29 10:34:16;;;;;;;2.50;1.30;;;22.50;76.20;;;;;;4976233;28;20473;-66
2021/09/29 10:36:49;;;;;;;2.93;1.00;;;22.20;77.30;;;;;;4978229;28;20442;-66
2021/09/29 10:47:37;;;;;;;1.47;1.03;;;20.60;81.20;;;;;;4978561;28;20474;-66
2021/09/29 11:02:42;;;;;;;6.70;1.30;;;20.10;83.70;;;;;;4978373;28;20415;-66
2021/09/29 11:07:28;;;;;;;4.80;1.33;;;19.40;91.90;;;;;;4971787;28;20562;-66
2021/09/29 11:29:39;;;;;;;4.50;1.20;;;22.20;85.80;;;;;;4977979;28;20507;-66
2021/09/29 11:32:17;;;;;;;1.40;1.00;;;22.60;85.20;;;;;;4977373;28;20509;-66
2021/09/29 11:34:46;;;;;;;2.23;1.03;;;23.00;82.20;;;;;;4977108;28;20467;-66
2021/09/29 11:37:27;;;;;;;1.83;1.10;;;23.20;80.70;;;;;;4977123;28;20494;-66
2021/09/29 12:10:57;;;;;;;4.40;1.53;;;22.30;83.10;;;;;;4955449;29;20470;-67
2021/09/29 12:13:42;;;;;;;1.13;0.83;;;22.20;81.00;;;;;;4955211;29;20469;-66
2021/09/29 12:16:08;;;;;;;1.63;1.10;;;22.30;81.90;;;;;;4968917;28;20458;-67
2021/09/29 12:18:35;;;;;;;1.37;0.93;;;22.20;81.80;;;;;;4976000;28;20969;-68
2021/09/29 12:21:03;;;;;;;2.37;0.90;;;22.40;82.10;;;;;;4976381;28;20533;-67
2021/09/29 12:23:31;;;;;;;2.10;0.90;;;22.40;80.90;;;;;;4976494;28;20483;-67
2021/09/29 12:26:18;;;;;;;2.43;0.70;;;22.80;80.10;;;;;;4976408;28;20801;-68
2021/09/29 12:28:58;;;;;;;1.37;1.00;;;22.80;78.80;;;;;;4976296;28;20470;-68
2021/09/29 12:34:22;;;;;;;2.30;1.00;;;23.40;78.60;;;;;;4976494;28;20472;-68
2021/09/29 12:36:49;;;;;;;3.50;0.93;;;23.40;78.80;;;;;;4975992;28;20490;-68
2021/09/29 12:39:25;;;;;;;3.10;1.17;;;22.90;78.30;;;;;;4976389;28;20459;-67
2021/09/29 12:41:53;;;;;;;0.83;0.67;;;22.60;78.80;;;;;;4978227;28;20565;-69
2021/09/29 12:44:20;;;;;;;1.63;0.70;;;22.40;79.30;;;;;;4980678;28;20490;-68
2021/09/29 12:46:51;;;;;;;1.20;0.80;;;22.20;80.70;;;;;;4976018;28;20455;-68
2021/09/29 12:49:19;;;;;;;0.80;0.77;;;22.10;81.80;;;;;;4979297;28;20478;-69
2021/09/29 12:51:53;;;;;;;3.43;1.40;;;21.90;81.20;;;;;;4978843;28;20490;-67
2021/09/29 12:54:23;;;;;;;4.10;1.17;;;21.70;82.10;;;;;;4982596;28;20529;-68
2021/09/29 12:56:50;;;;;;;1.10;1.00;;;21.50;83.20;;;;;;4978260;28;20442;-67
2021/09/29 12:59:17;;;;;;;2.53;1.30;;;21.50;83.70;;;;;;4976460;28;20462;-67
2021/09/29 13:01:44;;;;;;;2.23;0.80;;;21.80;84.50;;;;;;4976087;28;20486;-68
2021/09/29 13:04:11;;;;;;;0.53;0.53;;;21.90;84.50;;;;;;4976109;28;20450;-67
2021/09/29 13:06:37;;;;;;;1.80;0.70;;;21.90;82.60;;;;;;4976002;28;20458;-67
2021/09/29 13:09:04;;;;;;;1.33;1.10;;;21.70;83.40;;;;;;4975707;28;20454;-67
2021/09/29 13:11:32;;;;;;;1.97;1.40;;;21.70;85.80;;;;;;4976027;28;20482;-67
2021/09/29 13:13:59;;;;;;;3.53;1.13;;;22.20;84.00;;;;;;4975679;28;20459;-67
2021/09/29 13:16:26;;;;;;;6.03;1.07;;;22.20;83.00;;;;;;4976078;28;20455;-67
2021/09/29 13:19:00;;;;;;;1.83;0.90;;;22.10;83.60;;;;;;4975475;28;20454;-67
2021/09/29 13:21:30;;;;;;;5.50;1.00;;;22.10;84.30;;;;;;4975182;28;20482;-67
2021/09/29 13:24:01;;;;;;;3.93;0.80;;;21.80;84.80;;;;;;4975769;28;20893;-67
2021/09/29 13:26:52;;;;;;;2.60;1.10;;;21.60;85.50;;;;;;4975854;28;20439;-67
2021/09/29 13:37:35;;;;;;;2.83;1.57;;;20.70;92.80;;;;;;4980098;28;20514;-67
2021/09/29 13:40:02;;;;;;;2.50;0.90;;;20.50;95.40;;;;;;4979922;28;20451;-67
2021/09/29 13:42:29;;;;;;;2.90;0.87;;;20.30;97.90;;;;;;4979620;28;20827;-67
2021/09/29 13:44:58;;;;;;;1.60;1.07;;;20.10;99.80;;;;;;4979537;28;20450;-67
2021/09/29 13:47:26;;;;;;;2.20;1.17;;;19.90;99.90;;;;;;4979941;28;20501;-67
2021/09/29 13:49:52;;;;;;;5.03;1.10;;;19.60;99.90;;;;;;4979746;28;20545;-67
2021/09/29 13:52:22;;;;;;;0.77;0.77;;;19.30;99.90;;;;;;4981546;28;20481;-66
2021/09/29 13:54:51;;;;;;;2.70;1.00;;;19.10;99.90;;;;;;4979459;28;21004;-67
2021/09/29 13:57:20;;;;;;;0.97;0.87;;;18.90;99.90;;;;;;4979594;28;20864;-67
2021/09/29 13:59:54;;;;;;;1.10;1.10;;;18.70;99.90;;;;;;4978837;28;20934;-67
2021/09/29 14:29:52;;;;;;;0.60;0.53;;;16.20;99.90;;;;;;4978314;28;20957;-68
2021/09/29 14:32:21;;;;;;;4.30;0.53;;;16.00;99.90;;;;;;4978197;28;20474;-68
2021/09/29 14:34:49;;;;;;;0.40;0.40;;;15.90;99.90;;;;;;4978880;28;20485;-67
2021/09/29 14:37:16;;;;;;;1.23;0.97;;;15.90;99.90;;;;;;4979508;28;20510;-67
2021/09/29 14:39:44;;;;;;;0.77;0.50;;;15.80;99.90;;;;;;4979763;28;20553;-68
2021/09/29 14:42:10;;;;;;;0.60;0.60;;;15.80;99.90;;;;;;4978156;28;20478;-67
2021/09/29 14:44:38;;;;;;;1.43;0.60;;;15.80;99.90;;;;;;4979444;28;20461;-67
2021/09/29 14:47:10;;;;;;;2.93;0.60;;;15.90;99.90;;;;;;4978639;28;20498;-68
2021/09/29 14:49:37;;;;;;;0.73;0.73;;;15.90;99.90;;;;;;4979060;28;20445;-67
2021/09/29 14:52:06;;;;;;;0.67;0.50;;;15.80;99.90;;;;;;4978405;28;20478;-67
2021/09/29 14:54:33;;;;;;;0.97;0.90;;;15.80;99.90;;;;;;4978154;28;20478;-67
2021/09/29 14:57:00;;;;;;;1.83;0.70;;;15.80;99.90;;;;;;4977907;28;20458;-67
2021/09/29 14:59:27;;;;;;;0.83;0.83;;;15.80;99.90;;;;;;4978237;28;20443;-67
2021/09/29 15:01:53;;;;;;;0.70;0.60;;;15.80;99.90;;;;;;4977422;28;20489;-67
2021/09/29 15:04:20;;;;;;;1.60;0.70;;;15.80;99.90;;;;;;4977951;28;20462;-67
2021/09/29 15:06:47;;;;;;;0.50;0.50;;;15.80;99.90;;;;;;4978007;28;20451;-67
2021/09/29 15:09:15;;;;;;;1.43;0.70;;;15.80;99.90;;;;;;4977862;28;20455;-69
2021/09/29 15:11:42;;;;;;;0.60;0.60;;;15.90;99.90;;;;;;4977910;28;20858;-66
2021/09/29 15:14:11;;;;;;;2.07;0.63;;;15.90;99.90;;;;;;4977741;28;20455;-68
2021/09/29 15:16:45;;;;;;;0.93;0.60;;;15.90;99.90;;;;;;4977655;28;20458;-67
2021/09/29 15:19:30;;;;;;;2.03;0.67;;;16.00;99.90;;;;;;4977558;28;20529;-68
2021/09/29 15:22:11;;;;;;;0.83;0.53;;;15.90;99.90;;;;;;4977784;28;20478;-67
2021/09/29 15:24:52;;;;;;;1.03;0.70;;;15.80;99.90;;;;;;4981765;28;20431;-67
2021/09/29 15:27:40;;;;;;;2.27;0.83;;;15.90;99.90;;;;;;4984850;28;20461;-67
2021/09/29 15:46:58;;;;;;;0.77;0.70;;;15.80;99.90;;;;;;5095515;28;20413;-70
2021/09/29 15:49:41;;;;;;;2.63;1.53;;;15.70;99.90;;;;;;5093001;28;20477;-71
2021/09/29 15:52:18;;;;;;;0.50;0.50;;;15.70;99.90;;;;;;5091885;28;20512;-71
2021/09/29 15:54:55;;;;;;;0.77;0.60;;;15.70;99.90;;;;;;5092601;28;20434;-71
2021/09/29 15:57:47;;;;;;;3.20;0.60;;;15.80;99.90;;;;;;5092139;28;20441;-71
2021/09/29 16:00:40;;;;;;;1.90;0.70;;;15.70;99.90;;;;;;5092202;28;20438;-70
2021/09/29 16:03:12;;;;;;;0.60;0.60;;;15.80;99.90;;;;;;5092451;28;20474;-70
2021/09/29 16:05:48;;;;;;;2.90;1.50;;;15.80;99.90;;;;;;5092503;28;20511;-70
2021/09/29 16:08:25;;;;;;;4.90;4.50;;;15.70;99.90;;;;;;5092370;28;20437;-71
2021/09/29 16:19:28;;;;;;;18.07;16.50;;;15.70;99.90;;;;;;5093013;27;20524;-70
2021/09/29 16:22:14;;;;;;;17.33;15.70;;;15.70;99.90;;;;;;5092593;28;20833;-71
2021/09/29 16:30:17;;;;;;;9.10;8.43;;;15.50;99.90;;;;;;5091501;28;20432;-70
2021/09/29 16:35:38;;;;;;;9.60;8.60;;;15.40;99.90;;;;;;5034831;28;20582;-71
2021/09/29 16:38:05;;;;;;;7.73;7.10;;;15.40;99.90;;;;;;5092290;28;20462;-71
2021/09/29 16:40:33;;;;;;;16.77;15.37;;;15.40;99.90;;;;;;5091887;28;20457;-71
2021/09/29 16:43:00;;;;;;;10.90;9.90;;;15.50;99.90;;;;;;5092137;28;20457;-70
2021/09/29 16:45:28;;;;;;;2.63;2.43;;;15.50;99.90;;;;;;5092075;28;20449;-71
2021/09/29 16:47:56;;;;;;;1.80;0.90;;;15.50;99.90;;;;;;5092190;28;20445;-71
2021/09/29 16:50:28;;;;;;;0.80;0.80;;;15.50;99.90;;;;;;5091710;28;20461;-69
2021/09/29 16:52:59;;;;;;;0.77;0.77;;;15.50;99.90;;;;;;5091946;28;20441;-70
2021/09/29 16:55:31;;;;;;;1.33;0.80;;;15.50;99.90;;;;;;5092946;28;20539;-69
2021/09/29 16:58:18;;;;;;;1.13;0.80;;;15.50;99.90;;;;;;5092617;28;20978;-70
2021/09/29 17:00:52;;;;;;;1.07;0.80;;;15.50;99.90;;;;;;5093064;28;20473;-69
2021/09/29 17:03:19;;;;;;;1.27;0.80;;;15.50;99.90;;;;;;5092016;28;20437;-69
2021/09/29 17:05:46;;;;;;;2.20;0.80;;;15.40;99.90;;;;;;5091829;28;20456;-71
2021/09/29 17:08:14;;;;;;;2.63;0.80;;;15.40;99.90;;;;;;5092885;28;20449;-70
2021/09/29 17:10:41;;;;;;;1.23;0.60;;;15.40;99.90;;;;;;5091691;28;20480;-70
2021/09/29 17:13:10;;;;;;;1.17;0.90;;;15.40;99.90;;;;;;5092138;28;20455;-69
2021/09/29 17:15:37;;;;;;;2.20;0.60;;;15.40;99.90;;;;;;5094127;28;20450;-70
2021/09/29 17:18:04;;;;;;;0.57;0.57;;;15.30;99.90;;;;;;5098885;28;20473;-69
2021/09/29 17:20:30;;;;;;;1.53;0.90;;;15.30;99.90;;;;;;5091140;28;20460;-70
2021/09/29 17:22:59;;;;;;;1.80;0.93;;;15.20;99.90;;;;;;5091783;28;20460;-70
2021/09/29 17:25:29;;;;;;;1.83;0.77;;;15.10;99.90;;;;;;5091757;28;20450;-70
2021/09/29 17:27:56;;;;;;;1.53;0.70;;;15.10;99.90;;;;;;5091436;28;20468;-69
2021/09/29 17:30:26;;;;;;;0.80;0.80;;;15.00;99.90;;;;;;5089030;28;20430;-69
2021/09/29 17:33:15;;;;;;;0.63;0.63;;;15.00;99.90;;;;;;5082592;28;20450;-70
2021/09/29 17:35:51;;;;;;;1.70;0.80;;;14.90;99.90;;;;;;5078485;28;20806;-69
2021/09/29 17:52:20;;;;;;;1.60;0.70;;;14.60;99.90;;;;;;5077257;28;20531;-69
2021/09/29 17:54:47;;;;;;;1.33;1.03;;;14.50;99.90;;;;;;5078901;28;20434;-69
2021/09/29 17:57:15;;;;;;;0.60;0.60;;;14.50;99.90;;;;;;5089532;28;20454;-70
2021/09/29 17:59:44;;;;;;;3.27;2.27;;;14.50;99.90;;;;;;5079589;28;20449;-68
2021/09/29 18:02:14;;;;;;;3.37;2.00;;;14.50;99.90;;;;;;5076810;28;20476;-68
2021/09/29 18:04:43;;;;;;;3.10;0.93;;;14.40;99.90;;;;;;5076162;28;20552;-69
2021/09/29 18:07:13;;;;;;;1.70;1.60;;;14.40;99.90;;;;;;5077096;28;20442;-69
2021/09/29 18:09:40;;;;;;;1.13;1.03;;;14.40;99.90;;;;;;5076937;28;20484;-69
2021/09/29 18:12:07;;;;;;;0.90;0.90;;;14.40;99.90;;;;;;5076809;28;20470;-69
2021/09/29 18:14:35;;;;;;;1.83;0.80;;;14.40;99.90;;;;;;5076661;28;20454;-69
2021/09/29 18:17:03;;;;;;;2.03;0.90;;;14.50;99.90;;;;;;5076670;28;20811;-69
2021/09/29 18:19:30;;;;;;;2.10;1.20;;;14.40;99.90;;;;;;5076271;28;20459;-69
2021/09/29 18:21:57;;;;;;;0.80;0.80;;;14.50;99.90;;;;;;5076744;28;20478;-69
2021/09/29 18:24:25;;;;;;;0.97;0.80;;;14.50;99.90;;;;;;5076875;28;20450;-69
2021/09/29 18:26:52;;;;;;;1.50;1.10;;;14.30;99.90;;;;;;5076644;28;20933;-68
2021/09/29 18:29:21;;;;;;;1.60;1.47;;;14.40;99.90;;;;;;5077079;28;20442;-68
2021/09/29 18:31:49;;;;;;;1.80;1.13;;;14.30;99.90;;;;;;5076596;28;20833;-69
2021/09/29 18:34:17;;;;;;;2.50;0.97;;;14.30;99.90;;;;;;5076474;28;20485;-68
2021/09/29 18:36:45;;;;;;;2.83;1.10;;;14.30;99.90;;;;;;5077083;28;20434;-69
2021/09/29 18:39:12;;;;;;;2.23;1.23;;;14.30;99.90;;;;;;5076264;28;20474;-69
2021/09/29 18:41:39;;;;;;;1.13;1.00;;;14.30;99.90;;;;;;5075368;28;20528;-69
2021/09/29 18:44:09;;;;;;;2.37;1.00;;;14.30;99.90;;;;;;5077465;28;20461;-68
2021/09/29 18:46:37;;;;;;;3.33;1.03;;;14.30;99.90;;;;;;5078130;28;20461;-69
2021/09/29 18:49:11;;;;;;;3.90;0.67;;;14.20;99.90;;;;;;5085668;28;20446;-69
2021/09/29 18:51:41;;;;;;;0.77;0.77;;;14.20;99.90;;;;;;5076475;28;20477;-69
2021/09/29 18:54:13;;;;;;;1.30;0.60;;;14.00;99.90;;;;;;5077429;28;20782;-69
2021/09/29 19:07:38;;;;;;;1.13;1.00;;;13.60;99.90;;;;;;5077081;28;20488;-66
2021/09/29 19:10:05;;;;;;;2.83;0.80;;;13.50;99.90;;;;;;5077295;28;20439;-65
2021/09/29 19:12:32;;;;;;;2.63;2.10;;;13.50;99.90;;;;;;5075543;28;20548;-65
2021/09/29 19:15:00;;;;;;;2.10;0.90;;;13.50;99.90;;;;;;5076367;28;20476;-65
2021/09/29 19:17:27;;;;;;;0.70;0.63;;;13.50;99.90;;;;;;5075921;28;20515;-65
2021/09/29 19:19:55;;;;;;;1.33;1.00;;;13.40;99.90;;;;;;5077121;28;20478;-64
2021/09/29 19:22:22;;;;;;;2.63;0.90;;;13.40;99.90;;;;;;5076932;28;20457;-65
2021/09/29 19:24:48;;;;;;;1.20;0.90;;;13.30;99.90;;;;;;5081861;28;20465;-65
2021/09/29 19:27:15;;;;;;;1.70;0.90;;;13.20;99.90;;;;;;5079337;28;20441;-65
2021/09/29 19:29:42;;;;;;;0.77;0.77;;;13.20;99.90;;;;;;5076017;28;20460;-65
2021/09/29 19:32:09;;;;;;;2.27;0.80;;;13.20;99.90;;;;;;5076117;28;20478;-65
2021/09/29 19:34:36;;;;;;;1.50;1.40;;;13.20;99.90;;;;;;5075669;28;20964;-65
2021/09/29 19:37:04;;;;;;;1.23;1.20;;;13.10;99.90;;;;;;5076166;28;20453;-65
2021/09/29 19:39:31;;;;;;;1.80;0.90;;;13.00;99.90;;;;;;5076344;28;20474;-67
2021/09/29 19:42:01;;;;;;;1.43;1.17;;;13.00;99.90;;;;;;5076864;28;20477;-66
2021/09/29 19:44:30;;;;;;;0.90;0.90;;;13.00;99.90;;;;;;5076141;28;20991;-65
2021/09/29 19:47:01;;;;;;;0.70;0.70;;;13.00;99.90;;;;;;5075206;28;20454;-65
2021/09/29 19:49:32;;;;;;;3.00;1.17;;;12.90;99.90;;;;;;5075000;28;20430;-66
2021/09/29 19:52:28;;;;;;;1.00;1.00;;;12.80;99.90;;;;;;5074818;28;20474;-65
2021/09/29 20:08:46;;;;;;;1.53;1.30;;;12.90;99.90;;;;;;5075759;28;20510;-66
2021/09/29 20:11:14;;;;;;;2.30;1.37;;;12.90;99.90;;;;;;5074495;28;21011;-67
2021/09/29 20:13:43;;;;;;;0.83;0.80;;;12.80;99.90;;;;;;5075659;28;20453;-66
2021/09/29 20:16:12;;;;;;;1.10;1.00;;;12.90;99.90;;;;;;5075311;28;20957;-65
2021/09/29 20:18:44;;;;;;;1.80;0.80;;;12.90;99.90;;;;;;5075713;28;20996;-65
2021/09/29 20:21:11;;;;;;;1.27;0.70;;;12.90;99.90;;;;;;5087625;28;20560;-66
2021/09/29 20:23:39;;;;;;;1.17;1.07;;;12.90;99.90;;;;;;5074917;28;20512;-66
2021/09/29 20:26:05;;;;;;;2.73;0.90;;;13.00;99.90;;;;;;5074595;28;20446;-66
2021/09/29 20:28:33;;;;;;;9.43;1.57;;;13.00;99.90;;;;;;5074443;28;20457;-66
2021/09/29 20:31:01;;;;;;;1.50;0.93;;;13.00;99.90;;;;;;5088997;28;20486;-67
2021/09/29 20:33:34;;;;;;;1.90;1.13;;;13.00;99.90;;;;;;5084676;28;20457;-66
2021/09/29 20:36:33;;;;;;;1.10;1.10;;;12.90;99.90;;;;;;5076022;28;20511;-67
2021/09/29 20:44:29;;;;;;;2.20;0.73;;;12.70;99.90;;;;;;5074629;28;20496;-66
2021/09/29 20:46:57;;;;;;;0.97;0.83;;;12.70;99.90;;;;;;5074214;28;20450;-66